Time;durP1;ratioP1;P1;durP2;ratioP2;P2;SDS_P1;SDS_P2;PMS_P1;PMS_P2;Temp;Humidity;BMP_temperature;BMP_pressure;BME280_temperature;BME280_humidity;BME280_pressure;Samples;Min_cycle;Max_cycle;Signal;HPM_P1;HPM_P2
2022/01/25 00:08:38;;;;;;;21.63;12.70;;;;;;;4.90;91.75;101738.25;5053964;28;20059;-88
2022/01/25 00:27:26;;;;;;;19.00;12.15;;;;;;;4.77;91.01;101747.16;5043234;28;20041;-88
2022/01/25 00:30:10;;;;;;;20.88;11.77;;;;;;;4.76;91.09;101742.84;5054158;28;20397;-88
2022/01/25 00:32:38;;;;;;;18.20;11.48;;;;;;;4.71;91.13;101740.34;5043997;28;20116;-88
2022/01/25 00:35:04;;;;;;;20.33;11.60;;;;;;;4.74;91.00;101736.81;5049524;28;20080;-89
2022/01/25 00:37:29;;;;;;;20.88;12.40;;;;;;;4.72;91.23;101733.41;5051730;28;20132;-88
2022/01/25 00:39:55;;;;;;;22.33;12.32;;;;;;;4.71;90.68;101724.78;5051487;28;20418;-89
2022/01/25 00:45:44;;;;;;;22.25;12.25;;;;;;;4.74;90.35;101723.81;5036010;28;20562;-88
2022/01/25 00:48:19;;;;;;;18.55;11.65;;;;;;;4.77;90.13;101719.44;5050974;28;20033;-89
2022/01/25 00:50:47;;;;;;;18.90;11.48;;;;;;;4.73;90.33;101717.78;5052177;28;20399;-87
2022/01/25 00:55:57;;;;;;;20.23;11.45;;;;;;;4.71;90.19;101729.97;5055873;28;20396;-89
2022/01/25 00:58:23;;;;;;;21.05;11.57;;;;;;;4.72;89.87;101729.06;5038637;28;20040;-87
2022/01/25 01:00:51;;;;;;;21.25;13.55;;;;;;;4.68;89.94;101734.38;5049579;28;20126;-88
2022/01/25 01:03:17;;;;;;;22.58;12.13;;;;;;;4.67;90.20;101730.88;5054281;28;20039;-88
2022/01/25 01:05:44;;;;;;;22.00;12.95;;;;;;;4.67;89.85;101730.03;5054049;28;20105;-88
2022/01/25 01:08:09;;;;;;;23.33;13.63;;;;;;;4.64;89.90;101730.13;5052518;28;20032;-89
2022/01/25 01:10:35;;;;;;;17.63;11.65;;;;;;;4.63;89.36;101726.63;5052955;28;20088;-88
2022/01/25 01:13:52;;;;;;;18.77;11.68;;;;;;;4.65;88.94;101732.66;5044583;28;20400;-87
2022/01/25 01:15:59;;;;;;;16.27;10.85;;;;;;;4.61;88.68;101724.06;5050813;28;20088;-89
2022/01/25 01:29:23;;;;;;;15.77;10.57;;;;;;;4.68;87.21;101718.78;5054193;28;20052;-88
2022/01/25 01:32:00;;;;;;;19.23;10.90;;;;;;;4.74;87.38;101718.63;5053453;28;20423;-87
2022/01/25 01:40:15;;;;;;;17.88;10.52;;;;;;;4.65;87.61;101716.22;5056728;28;20091;-87
2022/01/25 01:42:59;;;;;;;22.35;10.82;;;;;;;4.68;86.99;101714.44;5056070;28;20104;-87
2022/01/25 01:45:52;;;;;;;20.02;10.27;;;;;;;4.64;87.10;101710.19;5042163;28;20112;-88
2022/01/25 01:48:38;;;;;;;18.77;10.75;;;;;;;4.69;86.81;101710.09;5055180;28;20107;-88
2022/01/25 01:51:20;;;;;;;16.13;10.10;;;;;;;4.67;87.22;101709.25;5047048;28;20029;-88
2022/01/25 01:53:46;;;;;;;16.67;10.05;;;;;;;4.60;87.28;101706.78;5056425;28;20067;-88
2022/01/25 01:56:12;;;;;;;17.45;10.38;;;;;;;4.64;87.25;101712.78;5055774;28;20037;-88
2022/01/25 01:58:41;;;;;;;17.77;9.90;;;;;;;4.60;86.94;101698.13;5054699;28;20094;-89
2022/01/25 02:01:14;;;;;;;17.42;10.32;;;;;;;4.63;87.27;101699.81;5053403;28;20404;-88
2022/01/25 02:03:40;;;;;;;19.08;10.68;;;;;;;4.62;87.08;101698.94;5053946;28;20021;-88
2022/01/25 02:06:06;;;;;;;19.13;10.40;;;;;;;4.64;86.86;101699.78;5053895;28;20119;-88
2022/01/25 02:08:34;;;;;;;17.35;10.93;;;;;;;4.59;87.18;101686.88;5052462;28;20120;-89
2022/01/25 02:11:06;;;;;;;19.15;10.30;;;;;;;4.57;86.65;101678.25;5053057;28;20040;-89
2022/01/25 02:13:32;;;;;;;18.92;10.07;;;;;;;4.56;87.21;101681.75;5033034;28;20492;-91
2022/01/25 02:16:02;;;;;;;16.80;10.52;;;;;;;4.59;86.89;101678.22;5034884;28;20100;-89
2022/01/25 02:23:58;;;;;;;20.40;11.80;;;;;;;4.49;87.78;101681.91;5053530;28;20136;-89
2022/01/25 02:26:24;;;;;;;15.02;10.50;;;;;;;4.53;87.88;101679.22;5049108;28;20516;-88
2022/01/25 02:28:49;;;;;;;17.60;10.27;;;;;;;4.56;87.13;101678.28;5052013;28;20041;-89
2022/01/25 02:31:16;;;;;;;16.38;10.55;;;;;;;4.55;87.08;101671.38;5044855;28;20091;-88
2022/01/25 02:33:42;;;;;;;15.98;10.05;;;;;;;4.55;86.96;101677.41;5052388;28;20496;-89
2022/01/25 02:36:22;;;;;;;15.30;8.80;;;;;;;4.52;86.41;101669.69;5053826;28;20076;-88
2022/01/25 02:38:50;;;;;;;14.38;8.75;;;;;;;4.54;86.67;101662.72;5051923;28;20508;-89
2022/01/25 02:41:15;;;;;;;15.52;8.25;;;;;;;4.52;85.91;101671.44;5043611;28;20041;-88
2022/01/25 02:43:45;;;;;;;15.30;8.57;;;;;;;4.54;85.63;101656.69;5052276;28;20071;-88
2022/01/25 02:49:08;;;;;;;14.32;8.50;;;;;;;4.53;85.09;101658.44;5054849;28;20442;-87
2022/01/25 02:51:39;;;;;;;14.18;9.23;;;;;;;4.52;84.96;101656.69;5054052;28;20102;-90
2022/01/25 02:54:08;;;;;;;18.52;9.75;;;;;;;4.52;84.81;101650.66;5058298;28;20062;-88
2022/01/25 02:56:36;;;;;;;19.20;10.02;;;;;;;4.52;84.97;101645.47;5052649;28;20657;-89
2022/01/25 02:59:07;;;;;;;16.25;9.82;;;;;;;4.55;84.59;101638.47;5054509;28;20052;-89
2022/01/25 03:01:33;;;;;;;18.52;10.02;;;;;;;4.53;84.18;101635.06;5059298;28;20067;-89
2022/01/25 03:03:58;;;;;;;15.52;10.30;;;;;;;4.51;84.01;101638.56;5052774;28;20036;-89
2022/01/25 03:06:26;;;;;;;17.30;10.32;;;;;;;4.56;84.81;101635.00;5054895;28;20025;-88
2022/01/25 03:08:53;;;;;;;21.63;10.90;;;;;;;4.58;84.50;101643.59;5052703;28;20044;-89
2022/01/25 03:11:20;;;;;;;16.83;9.90;;;;;;;4.56;84.53;101637.59;5052845;28;20128;-89
2022/01/25 03:14:08;;;;;;;17.30;9.20;;;;;;;4.58;84.79;101635.81;5052499;28;20394;-90
2022/01/25 03:16:52;;;;;;;15.50;9.90;;;;;;;4.58;85.25;101643.59;5053026;28;20071;-90
2022/01/25 03:24:56;;;;;;;15.82;9.30;;;;;;;4.48;85.23;101644.66;5043534;28;20104;-89
2022/01/25 03:27:52;;;;;;;16.75;9.45;;;;;;;4.46;85.34;101641.25;5053261;28;20057;-89
2022/01/25 03:30:35;;;;;;;14.70;9.30;;;;;;;4.43;85.20;101628.31;5054119;28;20059;-90
2022/01/25 03:33:01;;;;;;;17.75;10.52;;;;;;;4.46;85.63;101630.00;5052588;28;20075;-89
2022/01/25 03:35:26;;;;;;;17.50;9.77;;;;;;;4.40;85.15;101630.13;5052367;28;20032;-88
2022/01/25 03:37:52;;;;;;;18.98;10.73;;;;;;;4.35;85.49;101630.22;5059096;28;20057;-88
2022/01/25 03:40:18;;;;;;;18.75;10.65;;;;;;;4.35;86.03;101631.06;5050523;28;20036;-88
2022/01/25 03:42:44;;;;;;;15.73;10.25;;;;;;;4.32;86.05;101627.69;5051598;28;20017;-90
2022/01/25 03:45:17;;;;;;;15.38;10.77;;;;;;;4.33;86.04;101630.22;5052425;28;20032;-89
2022/01/25 03:50:27;;;;;;;16.20;9.95;;;;;;;4.32;86.17;101631.13;5041193;28;20044;-88
2022/01/25 03:52:56;;;;;;;16.60;11.02;;;;;;;4.35;86.23;101638.88;5052302;28;20123;-88
2022/01/25 03:55:21;;;;;;;16.08;9.82;;;;;;;4.32;85.83;101638.06;5050656;28;20060;-88
2022/01/25 03:57:47;;;;;;;17.65;10.65;;;;;;;4.29;86.25;101640.72;5046341;28;20049;-88
2022/01/25 04:00:13;;;;;;;16.45;9.65;;;;;;;4.30;86.32;101642.41;5051622;28;20040;-88
2022/01/25 04:02:50;;;;;;;17.02;10.43;;;;;;;4.29;86.37;101638.97;5049044;28;20037;-88
2022/01/25 04:05:22;;;;;;;18.40;10.20;;;;;;;4.28;86.60;101632.06;5043405;28;20067;-87
2022/01/25 04:07:50;;;;;;;17.98;11.13;;;;;;;4.31;86.68;101632.03;5048702;28;20090;-89
2022/01/25 04:10:18;;;;;;;16.55;10.38;;;;;;;4.33;86.92;101619.00;5051554;28;20090;-88
2022/01/25 04:12:44;;;;;;;17.40;11.10;;;;;;;4.36;86.98;101622.38;5046670;28;20171;-87
2022/01/25 04:15:10;;;;;;;15.85;10.45;;;;;;;4.30;86.59;101619.06;5051397;28;20029;-88
2022/01/25 04:17:42;;;;;;;16.15;10.10;;;;;;;4.25;86.29;101610.50;5052346;28;20037;-87
2022/01/25 04:20:28;;;;;;;17.02;9.52;;;;;;;4.22;86.69;101613.16;5051787;28;20037;-87
2022/01/25 04:25:37;;;;;;;19.02;9.32;;;;;;;4.19;86.08;101610.63;5054566;28;20507;-88
2022/01/25 04:28:03;;;;;;;15.45;9.77;;;;;;;4.21;86.60;101607.13;5056181;28;20028;-89
2022/01/25 04:30:34;;;;;;;20.13;10.20;;;;;;;4.21;86.18;101609.72;5056871;28;20064;-89
2022/01/25 04:33:03;;;;;;;17.83;9.38;;;;;;;4.20;86.05;101607.16;5056542;28;20103;-88
2022/01/25 04:35:45;;;;;;;;;;;;;;;4.18;86.16;101611.50;5055702;28;20037;-87
2022/01/25 04:49:27;;;;;;;15.82;9.65;;;;;;;4.17;86.29;101620.19;5055975;28;20040;-88
2022/01/25 04:52:06;;;;;;;15.60;9.32;;;;;;;4.18;85.95;101621.88;5055058;28;20079;-88
2022/01/25 04:54:57;;;;;;;15.98;10.05;;;;;;;4.18;86.28;101614.97;5056816;28;20377;-88
2022/01/25 05:00:10;;;;;;;14.05;9.60;;;;;;;4.11;86.34;101616.81;5055853;28;20048;-89
2022/01/25 05:05:50;;;;;;;16.38;10.00;;;;;;;4.10;86.22;101615.09;5044076;28;20114;-88
2022/01/25 05:10:59;;;;;;;14.82;9.18;;;;;;;4.05;86.79;101622.13;5055519;28;20041;-89
2022/01/25 05:13:50;;;;;;;18.42;9.93;;;;;;;4.05;87.33;101618.69;5055125;28;20064;-88
2022/01/25 05:16:46;;;;;;;18.63;9.43;;;;;;;4.02;87.30;101616.13;5049585;28;20041;-89
2022/01/25 05:24:35;;;;;;;19.42;11.20;;;;;;;3.92;89.27;101617.19;5057219;28;20037;-88
2022/01/25 05:27:04;;;;;;;19.95;11.77;;;;;;;3.91;89.09;101625.84;5057651;28;20045;-87
2022/01/25 05:29:35;;;;;;;16.77;10.73;;;;;;;3.89;89.16;101628.47;5057573;28;20453;-88
2022/01/25 05:32:01;;;;;;;18.27;10.35;;;;;;;3.88;89.54;101630.19;5048444;28;20074;-88
2022/01/25 05:34:31;;;;;;;19.27;12.65;;;;;;;3.87;89.13;101625.91;5041762;28;20123;-88
2022/01/25 05:36:59;;;;;;;19.70;10.45;;;;;;;3.88;89.11;101631.94;5038983;28;20060;-88
2022/01/25 05:39:30;;;;;;;25.52;10.32;;;;;;;3.84;89.92;101625.94;5042633;28;20013;-88
2022/01/25 05:42:23;;;;;;;19.67;11.25;;;;;;;3.75;89.99;101625.28;5061812;28;20036;-89
2022/01/25 05:45:11;;;;;;;19.63;10.97;;;;;;;3.81;90.25;101630.34;5059965;28;20065;-88
2022/01/25 05:47:39;;;;;;;17.40;10.85;;;;;;;3.83;90.47;101623.41;5043275;28;20036;-83
2022/01/25 05:50:15;;;;;;;18.15;10.57;;;;;;;3.83;90.68;101626.84;5051965;28;20037;-87
2022/01/25 05:52:41;;;;;;;20.95;10.30;;;;;;;3.86;89.68;101625.94;5053674;28;20037;-87
2022/01/25 05:55:08;;;;;;;22.27;10.20;;;;;;;3.80;89.71;101631.22;5039011;28;20048;-88
2022/01/25 05:57:43;;;;;;;18.75;11.20;;;;;;;3.79;90.56;101626.94;5055576;28;20431;-87
2022/01/25 06:00:12;;;;;;;20.63;10.70;;;;;;;3.74;90.81;101627.00;5054038;28;20068;-88
2022/01/25 06:02:38;;;;;;;17.25;9.80;;;;;;;3.72;90.33;101621.00;5052423;28;20041;-87
2022/01/25 06:05:08;;;;;;;20.55;11.68;;;;;;;3.58;91.19;101612.56;5044093;28;20393;-87
2022/01/25 06:07:34;;;;;;;22.20;11.65;;;;;;;3.58;91.79;101622.94;5040455;28;20041;-88
2022/01/25 06:09:59;;;;;;;23.65;11.40;;;;;;;3.57;92.04;101631.63;5043190;28;20103;-88
2022/01/25 06:12:27;;;;;;;21.60;10.93;;;;;;;3.57;91.67;101622.09;5054574;28;20054;-88
2022/01/25 06:14:55;;;;;;;27.95;12.35;;;;;;;3.50;92.02;101625.66;5053981;28;20111;-88
2022/01/25 06:17:23;;;;;;;24.00;12.27;;;;;;;3.54;92.55;101622.16;5045854;28;20123;-87
2022/01/25 06:19:56;;;;;;;19.23;11.55;;;;;;;3.55;91.74;101623.00;5053513;28;20445;-86
2022/01/25 06:22:24;;;;;;;21.83;12.10;;;;;;;3.54;91.55;101629.06;5055560;28;20037;-86
2022/01/25 06:25:00;;;;;;;;;;;;;;;;;;;;;
2022/01/25 06:27:33;;;;;;;22.20;11.70;;;;;;;3.58;92.61;101634.19;5056914;28;20035;-86
2022/01/25 06:30:03;;;;;;;19.95;11.88;;;;;;;3.59;92.46;101638.47;5041759;28;20493;-86
2022/01/25 06:32:32;;;;;;;24.58;12.65;;;;;;;3.53;92.72;101645.53;5054547;28;20037;-87
2022/01/25 06:35:05;;;;;;;24.83;12.50;;;;;;;3.51;93.09;101645.53;5045621;28;20036;-85
2022/01/25 06:37:30;;;;;;;22.80;12.30;;;;;;;3.52;92.38;101648.97;5053880;28;20031;-85
2022/01/25 06:40:05;;;;;;;25.17;13.35;;;;;;;3.53;92.91;101648.13;5054803;28;20099;-86
2022/01/25 06:42:46;;;;;;;22.42;12.55;;;;;;;3.48;92.67;101648.16;5058063;28;20115;-86
2022/01/25 06:45:16;;;;;;;26.52;13.13;;;;;;;3.47;92.86;101649.06;5036805;28;20090;-86
2022/01/25 06:47:45;;;;;;;21.23;12.45;;;;;;;3.49;92.99;101642.13;5052786;28;20029;-86
2022/01/25 06:50:11;;;;;;;;;;;;;;;3.49;93.37;101649.91;5044899;28;20040;-86
2022/01/25 06:52:40;;;;;;;26.88;12.77;;;;;;;3.52;92.80;101652.44;5055041;28;20384;-85
2022/01/25 06:55:14;;;;;;;20.58;12.27;;;;;;;3.49;92.63;101655.09;5053598;28;20029;-88
2022/01/25 06:57:42;;;;;;;24.15;13.52;;;;;;;3.51;93.18;101653.31;5055071;28;20029;-88
2022/01/25 07:00:16;;;;;;;26.00;13.93;;;;;;;3.52;93.20;101657.63;5054814;28;20040;-84
2022/01/25 07:02:41;;;;;;;26.67;13.90;;;;;;;3.59;92.56;101666.16;5033948;28;20121;-86
2022/01/25 07:05:10;;;;;;;28.10;13.88;;;;;;;3.59;92.62;101667.00;5042629;28;20322;-85
2022/01/25 07:07:43;;;;;;;24.90;14.27;;;;;;;3.58;92.73;101662.72;5054236;28;20029;-85
2022/01/25 07:10:09;;;;;;;22.58;12.90;;;;;;;3.60;92.53;101662.69;5054262;28;20068;-86
2022/01/25 07:12:40;;;;;;;23.65;13.82;;;;;;;3.61;92.41;101662.66;5054665;28;20082;-85
2022/01/25 07:15:09;;;;;;;25.73;13.75;;;;;;;3.49;92.33;101664.59;5056780;28;20102;-85
2022/01/25 07:17:36;;;;;;;25.30;13.13;;;;;;;3.47;93.22;101662.03;5057150;28;20029;-86
2022/01/25 07:23:45;;;;;;;24.45;13.02;;;;;;;3.48;93.49;101658.53;5056522;28;20075;-85
2022/01/25 07:26:11;;;;;;;25.38;13.63;;;;;;;3.53;92.97;101661.94;5058678;28;20052;-86
2022/01/25 07:28:39;;;;;;;27.75;13.32;;;;;;;3.49;93.02;101655.09;5058694;28;20481;-86
2022/01/25 07:31:05;;;;;;;27.50;13.87;;;;;;;3.47;93.10;101654.25;5055285;28;20021;-86
2022/01/25 07:33:51;;;;;;;24.65;12.95;;;;;;;3.46;93.08;101652.53;5056027;28;20433;-86
2022/01/25 07:36:18;;;;;;;28.92;13.52;;;;;;;3.42;93.32;101650.88;5054254;28;20041;-86
2022/01/25 07:38:44;;;;;;;24.05;13.35;;;;;;;3.39;93.70;101656.94;5052724;28;20029;-88
2022/01/25 07:41:13;;;;;;;27.08;14.63;;;;;;;3.44;93.47;101656.03;5053558;28;20127;-85
2022/01/25 07:43:39;;;;;;;29.80;13.10;;;;;;;3.44;93.26;101656.88;5055430;28;20043;-87
2022/01/25 07:46:09;;;;;;;27.48;12.88;;;;;;;3.39;92.98;101661.28;5053681;28;20021;-87
2022/01/25 07:48:40;;;;;;;29.17;13.38;;;;;;;3.39;93.50;101654.34;5052945;28;20021;-86
2022/01/25 07:51:26;;;;;;;23.08;12.77;;;;;;;3.39;92.90;101653.50;5055279;28;20148;-88
2022/01/25 07:54:05;;;;;;;30.48;13.68;;;;;;;3.40;92.74;101661.25;5050554;28;20123;-87
2022/01/25 07:56:33;;;;;;;29.55;12.95;;;;;;;3.38;92.94;101664.75;5049275;28;20040;-85
2022/01/25 07:59:02;;;;;;;23.85;12.93;;;;;;;3.32;93.36;101657.91;5055940;28;20032;-87
2022/01/25 08:01:35;;;;;;;25.80;13.02;;;;;;;3.37;93.17;101663.03;5042726;28;20094;-86
2022/01/25 08:04:02;;;;;;;24.15;12.75;;;;;;;3.40;92.88;101663.84;5034099;28;20055;-86
2022/01/25 08:06:27;;;;;;;24.55;12.10;;;;;;;3.36;93.24;101663.91;5024651;28;20048;-87
2022/01/25 08:08:53;;;;;;;24.88;12.90;;;;;;;3.40;93.27;101674.22;5058085;28;20036;-84
2022/01/25 08:11:22;;;;;;;21.70;12.43;;;;;;;3.41;92.17;101669.88;5056291;28;20071;-86
2022/01/25 08:13:49;;;;;;;22.95;11.93;;;;;;;3.43;92.98;101668.13;5058548;28;20033;-90
2022/01/25 08:16:32;;;;;;;22.75;11.38;;;;;;;3.43;92.63;101672.47;5049282;28;20056;-88
2022/01/25 08:18:58;;;;;;;22.55;12.27;;;;;;;3.35;92.53;101677.78;5054969;28;20117;-86
2022/01/25 08:21:25;;;;;;;24.35;12.60;;;;;;;3.33;93.28;101669.16;5056734;28;20071;-87
2022/01/25 08:24:13;;;;;;;26.58;12.15;;;;;;;3.40;93.37;101671.63;5055375;28;20059;-87
2022/01/25 08:26:44;;;;;;;24.60;13.10;;;;;;;3.43;93.27;101669.88;5058074;28;20040;-86
2022/01/25 08:29:11;;;;;;;29.10;12.95;;;;;;;3.52;93.23;101670.59;5071426;28;20033;-87
2022/01/25 08:31:40;;;;;;;23.42;12.20;;;;;;;3.51;92.52;101676.66;5065294;28;20041;-88
2022/01/25 08:34:28;;;;;;;25.77;12.48;;;;;;;3.45;92.77;101673.28;5069995;28;20048;-87
2022/01/25 08:36:55;;;;;;;27.25;13.85;;;;;;;3.43;93.52;101670.72;5071026;28;20025;-88
2022/01/25 08:39:21;;;;;;;25.30;13.00;;;;;;;3.49;93.12;101673.25;5071042;28;20005;-88
2022/01/25 08:41:55;;;;;;;25.20;14.27;;;;;;;3.48;93.13;101665.47;5067915;28;20061;-87
2022/01/25 08:44:21;;;;;;;29.17;13.43;;;;;;;3.50;92.68;101677.53;5059876;28;20089;-87
2022/01/25 08:46:50;;;;;;;43.20;14.73;;;;;;;3.52;93.55;101669.72;5069344;28;20025;-88
2022/01/25 08:49:21;;;;;;;26.10;13.52;;;;;;;3.54;92.83;101688.72;5061098;28;20086;-89
2022/01/25 08:52:05;;;;;;;26.45;13.77;;;;;;;3.53;93.08;101679.25;5062635;28;20037;-85
2022/01/25 08:54:31;;;;;;;41.08;13.68;;;;;;;3.52;92.83;101677.50;5050399;28;20021;-87
2022/01/25 08:56:57;;;;;;;28.13;14.20;;;;;;;3.51;92.46;101686.16;5049742;28;20147;-89
2022/01/25 08:59:32;;;;;;;28.95;14.85;;;;;;;3.53;92.61;101682.69;5035633;28;20094;-89
2022/01/25 09:02:00;;;;;;;29.55;14.82;;;;;;;3.50;91.52;101692.25;5050750;28;20104;-86
2022/01/25 09:04:33;;;;;;;28.73;14.25;;;;;;;3.52;91.91;101698.25;5047810;28;20174;-87
2022/01/25 09:06:58;;;;;;;34.30;14.50;;;;;;;3.54;92.10;101688.72;5042422;28;20033;-87
2022/01/25 09:09:29;;;;;;;30.25;15.38;;;;;;;3.54;92.26;101686.13;5048377;28;20055;-87
2022/01/25 09:12:03;;;;;;;30.45;17.73;;;;;;;3.41;92.74;101682.84;5046643;28;20037;-86
2022/01/25 09:14:31;;;;;;;30.00;15.57;;;;;;;3.45;92.70;101678.47;5046924;28;20131;-87
2022/01/25 09:17:10;;;;;;;32.17;16.38;;;;;;;3.43;91.76;101688.03;5054646;28;20037;-88
2022/01/25 09:19:44;;;;;;;36.15;16.80;;;;;;;3.35;91.97;101685.53;5055288;28;20120;-86
2022/01/25 09:22:15;;;;;;;34.15;16.00;;;;;;;3.41;92.08;101688.03;5045754;28;20173;-87
2022/01/25 09:24:51;;;;;;;34.30;17.35;;;;;;;3.31;90.60;101684.72;5050475;28;20025;-88
2022/01/25 09:27:22;;;;;;;37.58;18.15;;;;;;;3.38;90.97;101682.91;5052529;28;20139;-86
2022/01/25 09:29:52;;;;;;;36.13;18.63;;;;;;;3.45;90.60;101684.53;5034233;28;20151;-88
2022/01/25 09:32:21;;;;;;;36.55;19.25;;;;;;;3.53;91.00;101684.41;5041809;28;20033;-87
2022/01/25 09:34:49;;;;;;;40.85;19.73;;;;;;;3.55;90.79;101682.66;5049870;28;20130;-87
2022/01/25 09:37:28;;;;;;;;;;;;;;;;;;;;;
2022/01/25 09:40:15;;;;;;;;;;;;;;;;;;;;;
2022/01/25 09:42:42;;;;;;;36.00;18.27;;;;;;;3.58;90.86;101680.00;5052209;28;20031;-88
2022/01/25 09:45:09;;;;;;;35.35;19.27;;;;;;;3.58;90.93;101677.41;5049407;28;20032;-87
2022/01/25 09:47:39;;;;;;;43.53;21.20;;;;;;;3.63;90.59;101680.78;5052485;28;20041;-87
2022/01/25 09:50:07;;;;;;;45.97;22.27;;;;;;;3.64;90.48;101678.19;5048960;28;20041;-87
2022/01/25 09:52:33;;;;;;;41.33;22.38;;;;;;;3.66;89.38;101683.34;5052235;28;20037;-88
2022/01/25 09:55:08;;;;;;;38.25;20.50;;;;;;;3.60;88.56;101684.31;5052533;28;20465;-89
2022/01/25 09:57:37;;;;;;;41.17;20.27;;;;;;;3.57;88.53;101680.91;5045915;28;20086;-87
2022/01/25 10:00:05;;;;;;;46.63;20.73;;;;;;;3.60;89.18;101686.03;5045148;28;20045;-88
2022/01/25 10:02:42;;;;;;;44.22;21.48;;;;;;;3.61;88.68;101680.81;5052148;28;20029;-90
2022/01/25 10:05:30;;;;;;;50.33;19.50;;;;;;;3.55;87.86;101687.84;5053622;28;20083;-88
2022/01/25 10:08:17;;;;;;;39.67;18.90;;;;;;;3.52;88.06;101683.56;5054324;28;20044;-89
2022/01/25 10:11:02;;;;;;;37.13;20.20;;;;;;;3.57;87.99;101692.13;5054619;28;20063;-90
2022/01/25 10:14:22;;;;;;;;;;;;;;;;;;;;;
2022/01/25 10:17:25;;;;;;;35.22;18.15;;;;;;;3.52;86.57;101704.31;5057056;28;20470;-92
2022/01/25 10:19:53;;;;;;;34.05;18.38;;;;;;;3.51;86.98;101691.34;5037679;28;20060;-91
2022/01/25 10:22:24;;;;;;;32.47;16.98;;;;;;;3.50;86.42;101687.91;5038480;28;20125;-89
2022/01/25 10:24:52;;;;;;;32.75;18.02;;;;;;;3.47;87.10;101693.13;5045912;28;20488;-88
2022/01/25 10:27:59;;;;;;;36.13;17.43;;;;;;;3.52;87.45;101683.56;5053636;28;20041;-89
2022/01/25 10:30:13;;;;;;;39.13;17.98;;;;;;;3.50;86.99;101677.53;5050805;28;20310;-89
2022/01/25 10:32:39;;;;;;;35.58;18.75;;;;;;;3.45;87.69;101679.34;5036229;28;20056;-89
2022/01/25 10:35:53;;;;;;;35.42;17.48;;;;;;;3.36;87.90;101679.47;5053094;28;20025;-90
2022/01/25 10:38:21;;;;;;;32.65;17.80;;;;;;;3.36;88.60;101684.66;5057923;28;20037;-89
2022/01/25 10:41:11;;;;;;;37.20;17.45;;;;;;;3.34;88.60;101683.84;5053309;28;20081;-91
2022/01/25 10:43:39;;;;;;;31.85;17.75;;;;;;;3.38;88.84;101683.78;5049153;28;20115;-89
2022/01/25 10:46:10;;;;;;;38.92;20.30;;;;;;;3.34;89.03;101676.91;5047187;28;20041;-90
2022/01/25 10:48:58;;;;;;;35.92;19.63;;;;;;;3.43;88.47;101677.66;5069628;28;20032;-89
2022/01/25 10:51:39;;;;;;;35.83;20.55;;;;;;;3.45;87.72;101671.56;5053000;28;20041;-90
2022/01/25 10:54:07;;;;;;;34.17;19.58;;;;;;;3.40;87.11;101669.03;5048674;28;20047;-90
2022/01/25 10:56:39;;;;;;;38.60;21.50;;;;;;;3.43;87.45;101681.09;5042778;28;20049;-91
2022/01/25 10:59:14;;;;;;;35.80;20.65;;;;;;;3.46;87.62;101668.09;5046138;28;20033;-89
2022/01/25 11:02:10;;;;;;;35.85;18.88;;;;;;;3.40;87.74;101674.22;5036775;28;20136;-89
2022/01/25 11:04:40;;;;;;;40.47;20.25;;;;;;;3.31;88.35;101663.13;5039162;28;20036;-90
2022/01/25 11:07:11;;;;;;;41.38;20.38;;;;;;;3.37;88.77;101653.53;5051948;28;20514;-88
2022/01/25 11:09:44;;;;;;;37.28;19.45;;;;;;;3.39;88.48;101659.53;5047470;28;20029;-90
2022/01/25 11:12:15;;;;;;;44.05;21.60;;;;;;;3.44;88.54;101666.41;5051395;28;20029;-88
2022/01/25 11:14:53;;;;;;;39.90;21.77;;;;;;;3.38;89.06;101651.81;5052232;28;20033;-92
2022/01/25 11:17:32;;;;;;;42.97;20.80;;;;;;;3.25;89.66;101652.84;5016256;28;20036;-89
2022/01/25 11:22:50;;;;;;;46.53;24.40;;;;;;;3.23;89.05;101646.84;5044964;28;20033;-88
2022/01/25 11:25:19;;;;;;;46.83;23.33;;;;;;;3.26;89.59;101644.19;5036813;28;20121;-89
2022/01/25 11:27:57;;;;;;;;;;;;;;;;;;;;;
2022/01/25 11:30:23;;;;;;;49.42;24.70;;;;;;;3.31;88.60;101643.25;5053954;28;20650;-88
2022/01/25 11:32:59;;;;;;;61.20;23.48;;;;;;;3.29;88.80;101642.41;5052885;28;20058;-88
2022/01/25 11:35:29;;;;;;;53.53;23.33;;;;;;;3.31;88.51;101643.25;5051189;28;20135;-89
2022/01/25 11:37:57;;;;;;;53.60;24.42;;;;;;;3.25;87.62;101643.34;5039396;28;20056;-89
2022/01/25 11:40:39;;;;;;;48.80;22.27;;;;;;;3.22;87.29;101642.53;5050239;28;20037;-90
2022/01/25 11:43:16;;;;;;;52.53;23.10;;;;;;;3.23;87.14;101649.44;5054992;28;20027;-89
2022/01/25 11:45:49;;;;;;;50.10;23.33;;;;;;;3.21;87.63;101638.22;5052898;28;20064;-89
2022/01/25 11:48:21;;;;;;;59.35;24.15;;;;;;;3.23;87.27;101639.06;5052706;28;20040;-90
2022/01/25 11:50:47;;;;;;;50.67;22.05;;;;;;;3.22;87.14;101645.97;5044583;28;20880;-91
2022/01/25 11:53:17;;;;;;;48.28;23.05;;;;;;;3.22;87.27;101637.34;5036733;28;20049;-91
2022/01/25 11:55:49;;;;;;;54.25;23.92;;;;;;;3.27;87.63;101641.59;5042461;28;20040;-87
2022/01/25 11:58:28;;;;;;;59.40;23.80;;;;;;;3.32;87.37;101637.19;5056199;28;20025;-91
2022/01/25 12:01:03;;;;;;;52.45;23.00;;;;;;;3.25;86.67;101637.31;5053313;28;20039;-88
2022/01/25 12:03:34;;;;;;;53.70;23.75;;;;;;;3.20;87.59;101626.16;5054393;28;20167;-90
2022/01/25 12:06:04;;;;;;;53.00;23.25;;;;;;;3.22;87.53;101637.34;5048093;28;20029;-89
2022/01/25 12:12:06;;;;;;;54.50;24.25;;;;;;;3.22;86.77;101632.16;5052439;28;20086;-87
2022/01/25 12:14:40;;;;;;;48.95;23.38;;;;;;;3.24;86.78;101626.06;5050694;28;20129;-88
2022/01/25 12:17:06;;;;;;;45.95;21.35;;;;;;;3.28;85.62;101619.13;5052403;28;20123;-88
2022/01/25 12:19:34;;;;;;;58.15;23.95;;;;;;;3.34;85.60;101619.03;5040977;28;20036;-88
2022/01/25 12:22:02;;;;;;;50.85;22.88;;;;;;;3.31;86.09;101617.34;5039181;28;20381;-89
2022/01/25 12:24:35;;;;;;;50.25;22.63;;;;;;;3.35;85.93;101616.41;5054664;28;20103;-88
2022/01/25 12:27:17;;;;;;;45.88;22.08;;;;;;;3.41;85.04;101618.03;5050878;28;20040;-88
2022/01/25 12:29:47;;;;;;;45.67;21.40;;;;;;;3.39;83.89;101612.03;5049997;28;20041;-88
2022/01/25 12:32:26;;;;;;;47.58;22.65;;;;;;;3.38;83.56;101613.75;5052401;28;20583;-88
2022/01/25 12:35:11;;;;;;;49.03;21.33;;;;;;;3.38;83.54;101618.94;5050720;28;20547;-90
2022/01/25 12:37:53;;;;;;;48.40;22.00;;;;;;;3.30;83.88;101610.44;5049908;28;20033;-89
2022/01/25 12:40:29;;;;;;;51.42;21.85;;;;;;;3.38;83.76;101610.31;5042481;28;20041;-90
2022/01/25 12:43:00;;;;;;;51.53;23.15;;;;;;;3.38;83.69;101605.13;5062948;28;20386;-89
2022/01/25 12:45:29;;;;;;;46.90;21.75;;;;;;;3.32;82.63;101600.88;5053364;28;20154;-88
2022/01/25 12:48:06;;;;;;;51.85;23.92;;;;;;;3.24;83.45;101596.72;5057053;28;20123;-89
2022/01/25 12:50:34;;;;;;;48.22;21.10;;;;;;;3.19;83.53;101598.50;5057904;28;20033;-89
2022/01/25 12:53:03;;;;;;;54.65;23.40;;;;;;;3.13;83.58;101591.69;5065909;28;20473;-89
2022/01/25 12:55:34;;;;;;;50.67;22.33;;;;;;;3.11;84.35;101596.88;5066062;28;20081;-88
2022/01/25 12:58:00;;;;;;;59.33;22.95;;;;;;;3.20;84.39;101595.06;5065988;28;20120;-88
2022/01/25 13:00:42;;;;;;;52.00;23.40;;;;;;;3.23;83.48;101584.63;5063719;28;20017;-88
2022/01/25 13:03:46;;;;;;;49.60;22.70;;;;;;;3.24;83.69;101582.00;5060594;28;20338;-87
2022/01/25 13:06:18;;;;;;;50.28;22.70;;;;;;;3.27;83.12;101581.13;5064337;28;20037;-89
2022/01/25 13:09:15;;;;;;;46.53;19.98;;;;;;;3.21;82.82;101588.97;5064399;28;20029;-88
2022/01/25 13:16:49;;;;;;;47.33;20.92;;;;;;;3.24;83.43;101573.38;5060772;28;20041;-88
2022/01/25 13:19:19;;;;;;;45.90;19.55;;;;;;;3.29;83.53;101571.56;5058734;28;20029;-89
2022/01/25 13:22:00;;;;;;;48.55;20.92;;;;;;;3.36;83.99;101570.59;5059635;28;20142;-88
2022/01/25 13:24:31;;;;;;;42.20;20.33;;;;;;;3.30;83.94;101573.25;5054165;28;20111;-89
2022/01/25 13:27:05;;;;;;;50.55;20.60;;;;;;;3.29;84.07;101574.16;5055678;28;20497;-88
2022/01/25 13:32:27;;;;;;;45.97;20.10;;;;;;;3.28;85.99;101569.88;5049421;28;20044;-88
2022/01/25 13:35:25;;;;;;;45.45;20.67;;;;;;;3.33;85.71;101571.47;5056137;28;20098;-87
2022/01/25 13:38:32;;;;;;;44.95;19.90;;;;;;;3.33;85.19;101568.88;5053234;28;20029;-88